Time;durP1;ratioP1;P1;durP2;ratioP2;P2;SDS_P1;SDS_P2;PMS_P1;PMS_P2;Temp;Humidity;BMP_temperature;BMP_pressure;BME280_temperature;BME280_humidity;BME280_pressure;Samples;Min_cycle;Max_cycle;Signal;HPM_P1;HPM_P2
2021/03/12 00:01:12;;;;;;;;;12.25;12.25;;;;;26.23;53.19;99288.63;4959905;28;8846;-76
2021/03/12 00:03:40;;;;;;;;;15.75;12.50;;;;;26.21;53.54;99290.91;4961008;28;8906;-76
2021/03/12 00:06:11;;;;;;;;;13.25;12.00;;;;;26.18;53.59;99302.44;4964277;28;8844;-77
2021/03/12 00:08:43;;;;;;;;;15.75;11.75;;;;;26.17;53.57;99308.97;4961259;28;8853;-77
2021/03/12 00:11:13;;;;;;;;;11.75;11.75;;;;;26.17;53.27;99306.28;4973456;28;8992;-75
2021/03/12 00:13:41;;;;;;;;;12.75;12.75;;;;;26.15;53.46;99305.84;4933141;29;8882;-75
2021/03/12 00:16:10;;;;;;;;;10.00;10.00;;;;;26.15;53.33;99312.03;4934896;29;8907;-75
2021/03/12 00:18:42;;;;;;;;;7.50;7.50;;;;;26.11;53.36;99310.41;4934692;29;8996;-75
2021/03/12 00:21:12;;;;;;;;;15.00;12.50;;;;;26.15;52.98;99314.75;4934920;29;9643;-76
2021/03/12 00:23:41;;;;;;;;;11.75;11.25;;;;;26.17;53.37;99320.56;4942089;28;8892;-73
2021/03/12 00:26:10;;;;;;;;;13.25;12.50;;;;;26.18;53.33;99324.84;4952762;28;8999;-73
2021/03/12 00:28:38;;;;;;;;;14.00;12.75;;;;;26.18;52.89;99330.25;4953435;28;8868;-72
2021/03/12 00:31:08;;;;;;;;;13.00;11.25;;;;;26.14;53.10;99320.50;4953169;28;8937;-73
2021/03/12 00:33:37;;;;;;;;;9.00;8.75;;;;;26.16;53.01;99324.41;4955519;28;9632;-73
2021/03/12 00:36:07;;;;;;;;;13.25;12.00;;;;;26.19;52.99;99331.03;4961355;28;8876;-73
2021/03/12 00:38:36;;;;;;;;;11.75;11.25;;;;;26.13;52.91;99332.47;4956907;28;8857;-73
2021/03/12 00:41:07;;;;;;;;;13.50;11.50;;;;;26.20;52.89;99346.13;4956910;28;8859;-73
2021/03/12 00:43:37;;;;;;;;;17.00;11.25;;;;;26.20;52.85;99346.91;4956056;28;8836;-74
2021/03/12 00:46:09;;;;;;;;;8.50;8.50;;;;;26.19;52.82;99349.97;4959074;28;8852;-73
2021/03/12 00:48:38;;;;;;;;;9.00;9.00;;;;;26.22;52.99;99352.75;4953880;28;8856;-75
2021/03/12 00:51:07;;;;;;;;;10.00;7.00;;;;;26.21;53.00;99345.78;4957566;28;8865;-76
2021/03/12 00:53:35;;;;;;;;;11.00;9.00;;;;;26.18;52.62;99359.22;4966384;28;8861;-74
2021/03/12 00:56:04;;;;;;;;;11.00;10.00;;;;;26.23;52.76;99367.03;4970526;28;8876;-74
2021/03/12 00:58:33;;;;;;;;;12.75;9.75;;;;;26.23;52.91;99372.44;4953051;28;8864;-74
2021/03/12 01:01:01;;;;;;;;;20.67;19.00;;;;;26.26;52.72;99371.75;4952116;28;8880;-74
2021/03/12 01:03:30;;;;;;;;;17.50;13.00;;;;;26.29;52.58;99387.25;4952346;28;8979;-73
2021/03/12 01:05:58;;;;;;;;;16.25;11.00;;;;;26.20;52.86;99365.84;4951854;28;8852;-75
2021/03/12 01:08:27;;;;;;;;;9.50;9.50;;;;;26.30;52.51;99395.03;4958919;28;8931;-77
2021/03/12 01:10:56;;;;;;;;;11.75;8.50;;;;;26.29;52.64;99390.75;4951350;28;8878;-75
2021/03/12 01:13:24;;;;;;;;;10.00;10.00;;;;;26.33;52.70;99393.56;4948333;29;8856;-74
2021/03/12 01:15:53;;;;;;;;;6.50;6.00;;;;;26.37;52.75;99394.41;4949030;28;9609;-75
2021/03/12 01:18:22;;;;;;;;;11.25;8.50;;;;;26.33;52.66;99385.44;4946232;29;8954;-74
2021/03/12 01:20:50;;;;;;;;;12.50;10.25;;;;;26.39;52.50;99397.53;4950728;28;8887;-74
2021/03/12 01:23:19;;;;;;;;;9.00;9.00;;;;;26.48;52.24;99405.44;4951283;28;8962;-75
2021/03/12 01:25:47;;;;;;;;;13.50;9.75;;;;;26.49;52.29;99413.22;4952978;28;8891;-75
2021/03/12 01:28:17;;;;;;;;;13.00;10.00;;;;;26.52;52.43;99411.72;4957974;28;8826;-74
2021/03/12 01:30:49;;;;;;;;;9.00;7.00;;;;;26.58;52.26;99419.19;4960230;28;8875;-75
2021/03/12 01:33:19;;;;;;;;;12.75;9.25;;;;;26.58;52.25;99421.91;4960999;28;8940;-74
2021/03/12 01:35:48;;;;;;;;;9.50;7.75;;;;;26.59;52.33;99423.47;4964310;28;8852;-73
2021/03/12 01:38:16;;;;;;;;;13.00;10.75;;;;;26.60;52.34;99416.13;4965525;28;9672;-74
2021/03/12 01:40:47;;;;;;;;;7.00;7.00;;;;;26.58;52.09;99416.47;4974508;28;8850;-75
2021/03/12 01:43:17;;;;;;;;;7.50;6.25;;;;;26.65;52.04;99422.03;4975401;28;8869;-74
2021/03/12 01:45:49;;;;;;;;;8.75;8.75;;;;;26.65;52.29;99419.31;4975689;28;8840;-74
2021/03/12 01:48:22;;;;;;;;;6.00;6.00;;;;;26.64;52.24;99416.97;4975272;28;8857;-74
2021/03/12 01:50:57;;;;;;;;;10.50;8.00;;;;;26.64;52.07;99423.16;4975670;28;8825;-74
2021/03/12 01:53:26;;;;;;;;;7.75;7.75;;;;;26.70;52.21;99434.50;4975821;28;8849;-74
2021/03/12 01:55:56;;;;;;;;;9.00;8.00;;;;;26.70;51.88;99434.50;4973854;28;8869;-76
2021/03/12 01:58:25;;;;;;;;;5.00;4.75;;;;;26.71;52.08;99444.19;4975612;28;8932;-76
2021/03/12 02:00:54;;;;;;;;;10.50;8.25;;;;;26.69;52.12;99435.63;4975931;28;8870;-76
2021/03/12 02:03:30;;;;;;;;;10.75;10.75;;;;;26.73;51.75;99441.91;4975643;28;8877;-75
2021/03/12 02:06:04;;;;;;;;;9.75;8.00;;;;;26.73;51.93;99439.19;4975252;28;8863;-76
2021/03/12 02:08:32;;;;;;;;;7.75;7.75;;;;;26.71;51.91;99425.22;4975439;28;8857;-75
2021/03/12 02:11:00;;;;;;;;;12.25;9.00;;;;;26.84;52.07;99450.22;4975532;28;8869;-75
2021/03/12 02:13:43;;;;;;;;;10.25;9.75;;;;;26.87;52.03;99458.41;4975655;28;8865;-75
2021/03/12 02:16:18;;;;;;;;;8.25;6.50;;;;;26.91;51.96;99453.06;4975438;28;8940;-76
2021/03/12 02:18:54;;;;;;;;;13.00;13.00;;;;;26.95;51.80;99457.41;4975123;28;8936;-75
2021/03/12 02:21:40;;;;;;;;;11.50;10.50;;;;;26.97;51.56;99465.19;4972452;28;8861;-74
2021/03/12 02:24:33;;;;;;;;;8.50;8.50;;;;;26.99;51.43;99473.75;4973123;28;8974;-76
2021/03/12 02:27:08;;;;;;;;;7.75;7.50;;;;;27.04;51.84;99475.38;4973791;28;8891;-76
2021/03/12 02:29:43;;;;;;;;;12.00;7.00;;;;;27.02;51.84;99458.72;4973333;28;8868;-76
2021/03/12 02:32:16;;;;;;;;;12.50;9.50;;;;;27.14;51.53;99481.00;4974027;28;8854;-75
2021/03/12 02:34:47;;;;;;;;;12.75;9.50;;;;;27.16;51.66;99481.41;4973662;28;8869;-76
2021/03/12 02:37:19;;;;;;;;;7.00;7.00;;;;;27.23;51.45;99486.97;4974129;28;9614;-75
2021/03/12 02:39:53;;;;;;;;;11.75;9.75;;;;;27.26;51.38;99488.97;4973536;28;8869;-77
2021/03/12 02:42:22;;;;;;;;;10.00;10.00;;;;;27.29;51.40;99495.59;4974056;28;8931;-75
2021/03/12 02:44:52;;;;;;;;;8.75;8.75;;;;;27.24;51.36;99472.28;4973805;28;8881;-75
2021/03/12 02:47:27;;;;;;;;;8.50;7.75;;;;;27.30;51.28;99481.66;4973127;28;8872;-76
2021/03/12 02:49:56;;;;;;;;;9.75;8.00;;;;;27.32;51.31;99480.50;4964759;28;8991;-75
2021/03/12 02:52:26;;;;;;;;;9.50;8.25;;;;;27.38;50.93;99489.91;4972337;28;8869;-76
2021/03/12 02:54:56;;;;;;;;;8.75;7.00;;;;;27.38;51.22;99485.28;4973663;28;8927;-75
2021/03/12 02:57:25;;;;;;;;;11.50;10.00;;;;;27.44;51.02;99496.59;4973620;28;8853;-73
2021/03/12 02:59:55;;;;;;;;;10.25;9.25;;;;;27.45;51.12;99501.66;4973508;28;8967;-79
2021/03/12 03:02:25;;;;;;;;;8.25;8.25;;;;;27.42;50.96;99488.81;4973779;28;8887;-76
2021/03/12 03:04:59;;;;;;;;;8.00;8.00;;;;;27.50;50.85;99487.03;4973712;28;8873;-75
2021/03/12 03:07:28;;;;;;;;;9.00;9.00;;;;;27.56;50.90;99486.34;4973094;28;8876;-76
2021/03/12 03:09:57;;;;;;;;;10.25;8.25;;;;;27.60;51.01;99481.03;4972476;28;8951;-76
2021/03/12 03:12:27;;;;;;;;;10.75;8.50;;;;;27.64;50.84;99481.88;4973244;28;8881;-75
2021/03/12 03:15:01;;;;;;;;;9.00;8.25;;;;;27.67;50.93;99486.56;4974930;28;8849;-76
2021/03/12 03:17:31;;;;;;;;;11.25;9.50;;;;;27.68;50.93;99484.63;4974908;28;8861;-81
2021/03/12 03:20:00;;;;;;;;;9.00;9.00;;;;;27.76;51.08;99478.97;4973608;28;8869;-78
2021/03/12 03:22:29;;;;;;;;;11.75;10.50;;;;;27.81;51.06;99475.16;4973307;28;8876;-76
2021/03/12 03:24:57;;;;;;;;;9.25;8.25;;;;;27.85;50.59;99467.88;4972984;28;8874;-74
2021/03/12 03:27:25;;;;;;;;;9.33;8.00;;;;;27.86;50.83;99456.66;4971648;28;9563;-75
2021/03/12 03:29:54;;;;;;;;;9.50;8.00;;;;;28.00;50.91;99466.94;4973057;28;8885;-77
2021/03/12 03:32:22;;;;;;;;;12.50;11.25;;;;;28.03;50.77;99462.72;4972417;28;8861;-75
2021/03/12 03:34:51;;;;;;;;;12.25;10.00;;;;;28.03;50.13;99457.28;4972601;28;8885;-77
2021/03/12 03:37:20;;;;;;;;;12.50;8.50;;;;;28.03;50.76;99455.34;4972745;28;8881;-73
2021/03/12 03:39:48;;;;;;;;;9.25;6.00;;;;;28.10;49.99;99451.97;4972801;28;9009;-77
2021/03/12 03:42:18;;;;;;;;;11.50;10.50;;;;;28.14;50.07;99442.72;4972574;28;8849;-76
2021/03/12 03:44:48;;;;;;;;;13.75;7.75;;;;;28.19;50.35;99442.41;4972681;28;8892;-78
2021/03/12 03:47:18;;;;;;;;;8.00;8.00;;;;;28.20;50.19;99438.53;4971815;28;8895;-75
2021/03/12 03:49:47;;;;;;;;;8.00;8.00;;;;;28.19;50.52;99423.41;4971371;28;8865;-75
2021/03/12 03:52:17;;;;;;;;;8.00;8.00;;;;;28.28;49.94;99439.47;4972646;28;8859;-78
2021/03/12 03:54:47;;;;;;;;;13.75;9.75;;;;;28.26;50.39;99425.47;4971522;28;8968;-75
2021/03/12 03:57:17;;;;;;;;;10.75;10.75;;;;;28.28;50.17;99425.88;4967584;28;10302;-75
2021/03/12 03:59:48;;;;;;;;;11.75;11.75;;;;;28.33;49.51;99422.84;4972930;28;8881;-76
2021/03/12 04:02:18;;;;;;;;;11.50;11.50;;;;;28.38;50.34;99427.97;4973013;28;8939;-75
2021/03/12 04:04:52;;;;;;;;;7.75;7.50;;;;;28.41;50.13;99424.50;4972308;28;8960;-75
2021/03/12 04:07:22;;;;;;;;;11.75;9.50;;;;;28.41;48.97;99407.44;4973054;28;8900;-75
2021/03/12 04:09:51;;;;;;;;;8.75;8.75;;;;;28.44;49.63;99410.19;4973134;28;9653;-75
2021/03/12 04:12:21;;;;;;;;;12.25;8.50;;;;;28.46;50.24;99394.31;4939779;28;8865;-76
2021/03/12 04:14:51;;;;;;;;;11.75;9.00;;;;;28.54;49.90;99403.34;4973167;28;8873;-75
2021/03/12 04:17:21;;;;;;;;;10.50;8.75;;;;;28.64;49.90;99404.56;4973023;28;8896;-76
2021/03/12 04:19:50;;;;;;;;;11.25;9.75;;;;;28.65;50.12;99398.00;4972623;28;8885;-74
2021/03/12 04:22:19;;;;;;;;;12.75;11.00;;;;;28.67;49.34;99391.03;4972924;28;9587;-76
2021/03/12 04:24:48;;;;;;;;;8.75;8.75;;;;;28.58;49.91;99377.00;4972461;28;8869;-76
2021/03/12 04:27:18;;;;;;;;;12.25;10.75;;;;;28.67;48.81;99385.59;4972108;28;8887;-76
2021/03/12 04:29:47;;;;;;;;;11.50;9.75;;;;;28.77;48.83;99379.50;4972330;28;8888;-77
2021/03/12 04:32:16;;;;;;;;;11.25;10.25;;;;;28.81;49.35;99369.47;4972358;28;8869;-77
2021/03/12 04:34:45;;;;;;;;;12.25;12.25;;;;;28.93;47.96;99360.28;4972105;28;8857;-74
2021/03/12 04:37:16;;;;;;;;;13.75;13.50;;;;;29.08;48.73;99361.19;4971897;28;8865;-74
2021/03/12 04:39:46;;;;;;;;;16.50;11.50;;;;;29.20;49.36;99358.97;4987247;28;8972;-75
2021/03/12 04:42:14;;;;;;;;;11.75;8.00;;;;;29.19;47.97;99354.69;4966730;28;8863;-74
2021/03/12 04:45:08;;;;;;;;;12.00;9.50;;;;;29.26;47.02;99345.03;4961395;28;8918;-76
2021/03/12 04:47:40;;;;;;;;;13.25;11.00;;;;;29.32;48.09;99341.59;4957479;28;8826;-74
2021/03/12 04:50:12;;;;;;;;;8.50;7.00;;;;;29.41;47.87;99344.78;4963042;28;8853;-74
2021/03/12 04:52:41;;;;;;;;;12.25;10.00;;;;;29.41;47.31;99331.19;4958633;28;9016;-75
2021/03/12 04:55:10;;;;;;;;;9.50;8.25;;;;;29.53;48.60;99332.84;4960232;28;8980;-76
2021/03/12 04:57:39;;;;;;;;;11.50;10.00;;;;;29.61;48.78;99325.50;4960976;28;8868;-74
2021/03/12 05:00:10;;;;;;;;;9.00;9.00;;;;;29.67;47.72;99324.78;4965783;28;8846;-74
2021/03/12 05:02:39;;;;;;;;;12.25;12.25;;;;;29.64;47.06;99314.66;4966615;28;8886;-74
2021/03/12 05:05:10;;;;;;;;;12.25;11.25;;;;;29.72;48.31;99315.47;4964921;28;8892;-75
2021/03/12 05:07:42;;;;;;;;;11.50;8.25;;;;;29.66;48.12;99297.97;4976503;28;8944;-75
2021/03/12 05:10:11;;;;;;;;;12.00;10.50;;;;;29.71;48.80;99297.59;4975816;28;8873;-76
2021/03/12 05:12:40;;;;;;;;;9.75;9.25;;;;;29.71;48.13;99289.44;4961210;28;8986;-76
2021/03/12 05:15:25;;;;;;;;;8.75;8.75;;;;;29.66;48.69;99289.81;4953542;28;8847;-77
2021/03/12 05:17:53;;;;;;;;;16.50;11.00;;;;;29.66;48.75;99287.09;4943187;28;8859;-76
2021/03/12 05:20:24;;;;;;;;;12.25;8.25;;;;;29.67;48.11;99278.56;4959604;28;8878;-78
2021/03/12 05:22:53;;;;;;;;;9.00;9.00;;;;;29.69;45.93;99270.78;4949341;28;8897;-81
2021/03/12 05:25:22;;;;;;;;;9.25;8.75;;;;;29.77;47.74;99277.03;4964606;28;8866;-74
2021/03/12 05:27:50;;;;;;;;;14.00;12.25;;;;;29.70;47.70;99242.44;4964607;28;8865;-76
2021/03/12 05:30:18;;;;;;;;;10.25;10.00;;;;;29.83;47.59;99248.31;4950360;28;8867;-78
2021/03/12 05:32:47;;;;;;;;;11.75;10.75;;;;;29.97;47.63;99263.88;4954367;28;8848;-79
2021/03/12 05:35:16;;;;;;;;;12.25;9.75;;;;;29.93;45.98;99244.03;4958602;28;8834;-76
2021/03/12 05:37:45;;;;;;;;;15.00;13.00;;;;;30.06;47.04;99253.44;4938364;28;8875;-76
2021/03/12 05:40:14;;;;;;;;;7.25;7.00;;;;;30.07;47.77;99242.19;4953623;28;8983;-78
2021/03/12 05:42:43;;;;;;;;;9.25;9.25;;;;;30.14;47.69;99238.69;4948515;28;9655;-79
2021/03/12 05:45:12;;;;;;;;;11.50;9.00;;;;;30.12;44.61;99235.56;4948309;28;8948;-76
2021/03/12 05:47:41;;;;;;;;;19.00;17.75;;;;;30.20;47.56;99229.00;4944107;28;8997;-81
2021/03/12 05:50:13;;;;;;;;;14.00;12.75;;;;;30.25;47.43;99225.09;4957031;28;8860;-78
2021/03/12 05:52:45;;;;;;;;;11.25;11.25;;;;;30.27;46.43;99220.06;4956557;28;8876;-78
2021/03/12 05:55:18;;;;;;;;;14.25;12.50;;;;;30.29;47.27;99207.63;4952538;28;8884;-80
2021/03/12 05:57:50;;;;;;;;;9.75;9.75;;;;;30.36;47.12;99199.47;4963732;28;9587;-79
2021/03/12 06:00:19;;;;;;;;;11.50;10.25;;;;;30.42;45.81;99191.69;4962038;28;8846;-78
2021/03/12 06:02:49;;;;;;;;;14.25;11.50;;;;;30.50;44.54;99196.75;4958851;28;8860;-74
2021/03/12 06:05:18;;;;;;;;;13.75;12.00;;;;;30.63;44.59;99191.72;4957006;28;8857;-75
2021/03/12 06:07:50;;;;;;;;;12.25;12.25;;;;;30.76;46.10;99183.94;4954440;28;9624;-78
2021/03/12 06:10:18;;;;;;;;;17.50;13.50;;;;;30.88;43.54;99174.56;4957949;28;8853;-76
2021/03/12 06:12:55;;;;;;;;;11.50;11.00;;;;;30.98;46.51;99160.94;4957801;28;8875;-77
2021/03/12 06:15:39;;;;;;;;;17.25;14.75;;;;;31.10;46.65;99162.44;4961863;28;8943;-78
2021/03/12 06:18:14;;;;;;;;;14.50;13.25;;;;;31.11;42.77;99159.34;4958149;28;8947;-77
2021/03/12 06:20:43;;;;;;;;;13.50;11.25;;;;;31.12;43.43;99144.53;4952161;28;8859;-77
2021/03/12 06:23:11;;;;;;;;;12.75;12.75;;;;;31.23;46.32;99143.72;4949305;28;8898;-77
2021/03/12 06:25:40;;;;;;;;;11.25;11.25;;;;;31.29;44.61;99142.91;4949793;28;8852;-77
2021/03/12 06:28:19;;;;;;;;;15.25;15.25;;;;;31.31;45.96;99140.56;4972277;28;8864;-83
2021/03/12 06:30:48;;;;;;;;;12.00;12.00;;;;;31.32;45.38;99135.91;4967612;28;9598;-80
2021/03/12 06:33:31;;;;;;;;;13.50;13.50;;;;;31.34;43.96;99125.38;4958577;28;8884;-76
2021/03/12 06:36:03;;;;;;;;;16.50;15.25;;;;;31.41;43.85;99133.53;4963183;28;8872;-76
2021/03/12 06:38:31;;;;;;;;;7.25;7.25;;;;;31.52;43.01;99120.63;4961249;28;8895;-76
2021/03/12 06:41:00;;;;;;;;;9.00;9.00;;;;;31.58;44.61;99112.78;4968179;28;8850;-76
2021/03/12 06:43:29;;;;;;;;;15.25;15.25;;;;;31.72;45.27;99110.00;4957044;28;8854;-75
2021/03/12 06:46:01;;;;;;;;;17.75;17.75;;;;;31.80;45.97;99111.53;4947147;28;8860;-77
2021/03/12 06:48:36;;;;;;;;;14.00;13.25;;;;;31.72;45.09;99102.59;4962813;28;8881;-76
2021/03/12 06:51:09;;;;;;;;;16.75;16.75;;;;;31.73;44.24;99098.69;4969495;28;8872;-75
2021/03/12 06:53:41;;;;;;;;;19.00;19.00;;;;;31.71;43.62;99084.69;4961443;28;8968;-76
2021/03/12 06:56:15;;;;;;;;;13.25;13.25;;;;;31.74;45.05;99078.44;4955285;28;8942;-75
2021/03/12 06:59:00;;;;;;;;;14.25;14.25;;;;;31.82;45.85;99092.81;4947003;28;8888;-77
2021/03/12 07:01:28;;;;;;;;;17.50;16.25;;;;;31.86;45.70;99084.59;4955838;28;8854;-76
2021/03/12 07:04:14;;;;;;;;;17.00;17.00;;;;;31.88;42.96;99080.28;4960669;28;9590;-75
2021/03/12 07:06:48;;;;;;;;;18.25;17.75;;;;;31.95;42.43;99074.00;4958890;28;8867;-77
2021/03/12 07:09:18;;;;;;;;;14.25;14.25;;;;;32.10;42.66;99078.16;4952706;28;8848;-76
2021/03/12 07:12:05;;;;;;;;;16.25;16.25;;;;;32.15;44.99;99063.31;4956767;28;8848;-75
2021/03/12 07:14:34;;;;;;;;;13.00;13.00;;;;;32.17;45.12;99058.22;4944365;28;8861;-74
2021/03/12 07:17:02;;;;;;;;;13.50;13.25;;;;;32.13;42.11;99060.97;4965303;28;9630;-75
2021/03/12 07:19:34;;;;;;;;;13.00;13.00;;;;;32.18;44.50;99059.78;4959827;28;8848;-75
2021/03/12 07:22:05;;;;;;;;;17.50;16.50;;;;;32.19;42.80;99053.91;4957412;28;8853;-76
2021/03/12 07:24:34;;;;;;;;;16.75;16.75;;;;;32.22;41.46;99050.38;4951181;28;8863;-77
2021/03/12 07:27:04;;;;;;;;;15.50;15.25;;;;;32.24;43.56;99041.81;4951407;28;8848;-76
2021/03/12 07:29:35;;;;;;;;;15.25;15.25;;;;;32.29;43.90;99033.94;4958533;28;8881;-74
2021/03/12 07:32:07;;;;;;;;;17.25;17.25;;;;;32.32;41.69;99035.09;4954572;28;8864;-75
2021/03/12 07:34:39;;;;;;;;;12.00;12.00;;;;;32.35;44.69;99032.34;4956972;28;8856;-79
2021/03/12 07:37:09;;;;;;;;;15.25;15.00;;;;;32.32;40.84;99029.63;4957557;28;8891;-77
2021/03/12 07:39:42;;;;;;;;;14.25;14.25;;;;;32.24;42.22;99015.28;4947011;28;8856;-80
2021/03/12 07:42:15;;;;;;;;;20.00;19.25;;;;;32.33;44.34;99017.53;4946963;28;9686;-79
2021/03/12 07:44:45;;;;;;;;;17.75;17.75;;;;;32.34;43.96;99014.41;4953058;28;8863;-76
2021/03/12 07:47:27;;;;;;;;;19.00;18.50;;;;;32.37;44.20;99015.53;4950201;28;8868;-76
2021/03/12 07:49:56;;;;;;;;;17.50;17.50;;;;;32.32;44.35;99016.00;4956401;28;8852;-79
2021/03/12 07:52:49;;;;;;;;;16.75;16.25;;;;;32.23;43.96;99007.50;4959056;28;8860;-78
2021/03/12 07:55:51;;;;;;;;;15.50;13.50;;;;;32.12;43.96;99004.84;4956875;28;8844;-76
2021/03/12 07:58:59;;;;;;;;;15.50;14.25;;;;;32.05;42.09;98996.72;4962562;28;8837;-79
2021/03/12 08:01:45;;;;;;;;;20.75;20.00;;;;;32.09;43.93;98997.47;4953031;28;8871;-78
2021/03/12 08:04:34;;;;;;;;;21.50;20.50;;;;;31.81;44.01;98952.13;4954133;28;8874;-78
2021/03/12 08:07:34;;;;;;;;;18.00;17.00;;;;;32.07;43.05;98989.69;4959444;28;8903;-77
2021/03/12 08:10:18;;;;;;;;;15.00;14.75;;;;;32.08;43.49;98982.28;4960291;28;8873;-72
2021/03/12 08:12:50;;;;;;;;;17.00;17.00;;;;;32.03;42.26;98966.34;4946956;28;8870;-73
2021/03/12 08:15:34;;;;;;;;;18.00;18.00;;;;;32.18;43.47;98978.66;4950992;28;8845;-78
2021/03/12 08:18:23;;;;;;;;;16.00;16.00;;;;;32.16;42.95;98964.66;4945629;28;8949;-75
2021/03/12 08:20:52;;;;;;;;;16.25;16.25;;;;;32.08;43.81;98958.50;4944490;28;8864;-77
2021/03/12 08:23:35;;;;;;;;;15.75;15.75;;;;;32.06;43.21;98968.25;4949988;28;8840;-78
2021/03/12 08:26:03;;;;;;;;;20.50;19.75;;;;;32.04;43.05;98959.69;4951059;28;8856;-74
2021/03/12 08:28:34;;;;;;;;;19.25;18.25;;;;;32.08;43.14;98965.91;4952243;28;8969;-74
2021/03/12 08:31:03;;;;;;;;;17.00;17.00;;;;;32.08;43.65;98946.78;4954106;28;8877;-75
2021/03/12 08:33:34;;;;;;;;;14.50;13.50;;;;;32.05;43.89;98950.34;4951168;28;8868;-75
2021/03/12 08:36:04;;;;;;;;;23.25;22.50;;;;;32.09;43.06;98946.38;4958307;28;8856;-73
2021/03/12 08:38:36;;;;;;;;;20.25;17.75;;;;;32.10;43.29;98941.72;4962661;28;8887;-71
2021/03/12 08:41:08;;;;;;;;;40.75;36.50;;;;;32.07;43.40;98928.88;4951794;28;8860;-76
2021/03/12 08:43:43;;;;;;;;;13.25;13.25;;;;;32.13;43.13;98929.19;4943036;28;9735;-75
2021/03/12 08:46:29;;;;;;;;;17.50;17.50;;;;;32.09;42.77;98930.00;4950782;28;8877;-75
2021/03/12 08:49:11;;;;;;;;;14.25;14.25;;;;;32.18;42.91;98934.22;4955961;28;8864;-73
2021/03/12 08:51:39;;;;;;;;;18.75;18.25;;;;;32.20;43.39;98921.72;4951608;28;8918;-74
2021/03/12 08:54:09;;;;;;;;;14.50;13.75;;;;;32.22;43.49;98921.31;4957391;28;8839;-76
2021/03/12 08:56:38;;;;;;;;;18.50;17.50;;;;;32.12;43.38;98909.31;4954769;28;8852;-77
2021/03/12 08:59:07;;;;;;;;;16.75;16.75;;;;;32.11;41.02;98910.50;4952535;28;8874;-77
2021/03/12 09:01:37;;;;;;;;;14.00;14.00;;;;;32.18;42.22;98918.63;4958238;28;8857;-76
2021/03/12 09:04:06;;;;;;;;;18.00;17.00;;;;;32.22;42.98;98916.63;4956118;28;8837;-74
2021/03/12 09:06:36;;;;;;;;;14.25;14.25;;;;;32.25;43.46;98918.56;4969064;28;8856;-74
2021/03/12 09:09:10;;;;;;;;;17.50;17.25;;;;;32.21;42.94;98915.06;4955565;28;8971;-75
2021/03/12 09:11:39;;;;;;;;;19.75;19.75;;;;;32.16;42.86;98912.78;4960778;28;8851;-77
2021/03/12 09:14:08;;;;;;;;;18.00;17.25;;;;;32.15;43.29;98918.66;4955308;28;9005;-75
2021/03/12 09:16:39;;;;;;;;;18.25;18.25;;;;;32.05;43.16;98907.44;4972872;28;8846;-74
2021/03/12 09:19:14;;;;;;;;;14.75;14.75;;;;;32.09;42.19;98912.88;4955611;28;8858;-76
2021/03/12 09:22:06;;;;;;;;;17.25;17.25;;;;;32.07;43.38;98907.81;4955488;28;8939;-75
2021/03/12 09:24:51;;;;;;;;;18.00;18.00;;;;;32.10;42.67;98907.00;4954742;28;8884;-77
2021/03/12 09:27:21;;;;;;;;;15.75;15.75;;;;;32.10;42.80;98911.69;4951274;28;8867;-75
2021/03/12 09:29:49;;;;;;;;;13.25;12.00;;;;;32.04;42.42;98907.84;4950345;28;8971;-76
2021/03/12 09:32:18;;;;;;;;;15.50;15.50;;;;;32.04;42.63;98899.66;4950907;28;8864;-73
2021/03/12 09:34:53;;;;;;;;;35.25;34.00;;;;;32.06;42.74;98908.22;4949166;28;8955;-74
2021/03/12 09:37:41;;;;;;;;;18.50;18.50;;;;;32.02;43.35;98902.81;4950700;28;9684;-73
2021/03/12 09:40:29;;;;;;;;;22.25;21.50;;;;;32.00;42.17;98907.88;4949418;28;8897;-77
2021/03/12 09:42:57;;;;;;;;;20.50;20.25;;;;;31.99;41.41;98900.13;4950642;28;8871;-74
2021/03/12 09:45:26;;;;;;;;;19.25;18.75;;;;;32.05;41.73;98907.44;4962306;28;8879;-75
2021/03/12 09:47:56;;;;;;;;;18.25;18.25;;;;;32.06;42.15;98906.25;4962176;28;8900;-75
2021/03/12 09:50:25;;;;;;;;;19.25;19.25;;;;;32.13;42.64;98904.63;4962173;28;8879;-73
2021/03/12 09:52:57;;;;;;;;;21.50;20.25;;;;;32.16;42.30;98912.00;4959636;28;8974;-78
2021/03/12 09:55:32;;;;;;;;;20.50;19.75;;;;;32.06;43.14;98902.75;4965678;28;8869;-78
2021/03/12 09:58:07;;;;;;;;;16.50;15.50;;;;;32.13;42.82;98915.56;4969387;28;8923;-75
2021/03/12 10:00:36;;;;;;;;;18.25;18.25;;;;;32.09;42.29;98912.88;4965834;28;8869;-74
2021/03/12 10:03:05;;;;;;;;;16.25;15.00;;;;;32.02;43.04;98910.22;4962222;28;8877;-73
2021/03/12 10:05:34;;;;;;;;;17.75;17.75;;;;;31.98;42.52;98920.41;4944699;28;8856;-74
2021/03/12 10:08:05;;;;;;;;;17.00;16.25;;;;;31.96;43.23;98918.06;4915173;29;10144;-72
2021/03/12 10:10:35;;;;;;;;;18.50;18.50;;;;;31.87;42.91;98911.53;4953298;28;8871;-73
2021/03/12 10:13:06;;;;;;;;;17.75;15.75;;;;;31.86;42.69;98918.94;4956003;28;9633;-73
2021/03/12 10:15:37;;;;;;;;;16.75;16.75;;;;;31.84;42.89;98920.53;4964602;28;9597;-72
2021/03/12 10:18:15;;;;;;;;;16.50;16.25;;;;;31.81;42.63;98913.16;4962238;28;8935;-75
2021/03/12 10:20:44;;;;;;;;;16.75;16.25;;;;;31.76;42.31;98900.72;4949546;28;8863;-76
2021/03/12 10:23:14;;;;;;;;;13.25;13.25;;;;;31.83;42.08;98917.03;4956130;28;8899;-73
2021/03/12 10:25:48;;;;;;;;;15.50;15.50;;;;;31.83;42.16;98919.00;4962240;28;8867;-74
2021/03/12 10:28:20;;;;;;;;;18.50;18.50;;;;;31.84;43.00;98921.31;4959383;28;8845;-76
2021/03/12 10:31:00;;;;;;;;;19.50;19.50;;;;;31.73;43.28;98910.50;4950316;28;8856;-74
2021/03/12 10:33:31;;;;;;;;;16.25;16.25;;;;;31.77;43.26;98930.34;4952417;28;8873;-74
2021/03/12 10:36:04;;;;;;;;;16.75;16.75;;;;;31.68;43.59;98931.94;4955872;28;9720;-74
2021/03/12 10:38:35;;;;;;;;;23.00;19.00;;;;;31.62;43.41;98934.34;4952675;28;8882;-73
2021/03/12 10:41:25;;;;;;;;;17.00;17.00;;;;;31.54;43.44;98938.31;4958156;28;8836;-74
2021/03/12 10:44:04;;;;;;;;;15.75;15.25;;;;;31.46;43.44;98934.84;4959250;28;8857;-74
2021/03/12 10:46:35;;;;;;;;;16.75;16.75;;;;;31.41;43.73;98934.50;4952045;28;8869;-74
2021/03/12 10:49:04;;;;;;;;;16.00;14.50;;;;;31.29;43.69;98926.81;4954714;28;8845;-74
2021/03/12 10:51:41;;;;;;;;;20.00;18.00;;;;;31.29;42.53;98938.50;4958085;28;8895;-74
2021/03/12 10:54:13;;;;;;;;;15.75;15.75;;;;;31.27;42.71;98929.94;4956691;28;8866;-75
2021/03/12 10:56:48;;;;;;;;;16.25;14.25;;;;;31.20;42.81;98921.06;4961675;28;9008;-74
2021/03/12 10:59:17;;;;;;;;;9.75;9.75;;;;;31.28;43.33;98930.72;4970498;28;8857;-73
2021/03/12 11:01:48;;;;;;;;;17.75;16.00;;;;;31.28;42.95;98934.22;4962206;28;8860;-75
2021/03/12 11:04:18;;;;;;;;;20.75;18.50;;;;;31.23;42.72;98929.19;4952555;28;9672;-74
2021/03/12 11:06:46;;;;;;;;;17.50;13.50;;;;;31.28;42.72;98936.94;4957862;28;8868;-74
2021/03/12 11:09:15;;;;;;;;;16.00;15.75;;;;;31.30;42.96;98939.28;4953737;28;8854;-74
2021/03/12 11:11:44;;;;;;;;;19.00;17.25;;;;;31.26;43.33;98931.13;4953884;28;8874;-74
2021/03/12 11:14:12;;;;;;;;;23.75;19.25;;;;;31.21;42.97;98928.81;4957876;28;9597;-74
2021/03/12 11:16:41;;;;;;;;;15.50;14.25;;;;;31.21;42.85;98933.50;4955863;28;9622;-74
2021/03/12 11:19:11;;;;;;;;;18.25;16.50;;;;;31.16;42.81;98944.84;4953709;28;8852;-74
2021/03/12 11:21:42;;;;;;;;;16.50;16.50;;;;;31.12;43.16;98942.88;4951557;28;8852;-74
2021/03/12 11:24:11;;;;;;;;;19.75;16.75;;;;;31.09;43.56;98940.97;4959497;28;8882;-75
2021/03/12 11:26:42;;;;;;;;;14.75;14.25;;;;;31.06;43.68;98936.31;4959799;28;8889;-75
2021/03/12 11:29:11;;;;;;;;;13.75;13.25;;;;;31.07;43.98;98943.31;4944024;28;8866;-73
2021/03/12 11:31:41;;;;;;;;;22.50;18.50;;;;;31.05;45.07;98942.94;4946645;28;8854;-74
2021/03/12 11:34:11;;;;;;;;;19.50;19.50;;;;;31.05;44.56;98951.09;4947901;28;8939;-75
2021/03/12 11:36:39;;;;;;;;;23.25;19.25;;;;;31.02;44.70;98943.72;4947680;28;8856;-75
2021/03/12 11:39:08;;;;;;;;;18.00;14.75;;;;;31.02;44.25;98949.19;4955149;28;8849;-73
2021/03/12 11:41:38;;;;;;;;;17.75;17.75;;;;;31.05;43.89;98945.66;4957671;28;8954;-74
2021/03/12 11:44:07;;;;;;;;;28.25;24.00;;;;;31.06;44.19;98951.88;4956276;28;8896;-73
2021/03/12 11:46:35;;;;;;;;;24.00;19.75;;;;;30.99;44.53;98941.03;4958565;28;9652;-74
2021/03/12 11:49:05;;;;;;;;;22.67;20.00;;;;;31.05;44.18;98951.09;4955079;28;8857;-74
2021/03/12 11:51:34;;;;;;;;;20.75;19.00;;;;;31.03;44.50;98960.84;4951235;28;8861;-74